createdAt,value
2023-01-18T00:00:10.343Z,98996.22
2023-01-18T00:02:37.388Z,99011.19
2023-01-18T00:05:04.268Z,99005.88
2023-01-18T00:07:31.466Z,99004.19
2023-01-18T00:09:57.962Z,99005.03
2023-01-18T00:12:24.433Z,99001.53
2023-01-18T00:14:50.914Z,99005.03
2023-01-18T00:17:17.404Z,99014.59
2023-01-18T00:19:43.952Z,99011.81
2023-01-18T00:22:10.431Z,99010.13
2023-01-18T00:24:37.011Z,99016.59
2023-01-18T00:27:03.555Z,99012.38
2023-01-18T00:29:30.929Z,99015.13
2023-01-18T00:31:57.519Z,99011.63
2023-01-18T00:34:24.146Z,99008.97
2023-01-18T00:36:50.657Z,99019.59
2023-01-18T00:39:17.310Z,99012.81
2023-01-18T00:42:03.809Z,99018.44
2023-01-18T00:44:30.315Z,99019.63
2023-01-18T00:46:56.835Z,99019.84
2023-01-18T00:49:23.997Z,99020.16
2023-01-18T00:51:52.234Z,99023.25
2023-01-18T00:54:19.081Z,99028.03
2023-01-18T00:56:45.549Z,99027.19
2023-01-18T00:59:12.280Z,99028.13
2023-01-18T01:01:39.005Z,99029.09
2023-01-18T01:04:24.279Z,99031.94
2023-01-18T01:06:51.730Z,99026.00
2023-01-18T01:09:27.485Z,99031.53
2023-01-18T01:12:13.499Z,99032.59
2023-01-18T01:15:01.623Z,99034.59
2023-01-18T01:17:48.564Z,99034.06
2023-01-18T01:20:33.998Z,99028.09
2023-01-18T01:23:30.156Z,99033.50
2023-01-18T01:26:10.667Z,99036.47
2023-01-18T01:28:39.828Z,99036.69
2023-01-18T01:31:08.827Z,99034.25
2023-01-18T01:33:36.183Z,99042.41
2023-01-18T01:36:06.997Z,99039.13
2023-01-18T01:38:33.597Z,99042.81
2023-01-18T01:41:04.953Z,99044.72
2023-01-18T01:43:49.551Z,99042.28
2023-01-18T01:46:57.242Z,99050.34
2023-01-18T01:49:32.100Z,99060.75
2023-01-18T01:52:10.823Z,99067.84
2023-01-18T01:54:44.148Z,99065.09
2023-01-18T01:57:17.141Z,99055.44
2023-01-18T01:59:50.032Z,99063.50
2023-01-18T02:02:16.882Z,99062.75
2023-01-18T02:04:45.147Z,99064.53
2023-01-18T02:07:12.479Z,99060.19
2023-01-18T02:09:39.494Z,99055.84
2023-01-18T02:12:06.129Z,99058.69
2023-01-18T02:14:32.782Z,99061.66
2023-01-18T02:17:05.454Z,99068.22
2023-01-18T02:19:56.695Z,99064.19
2023-01-18T02:22:47.441Z,99067.97
2023-01-18T02:25:28.868Z,99071.47
2023-01-18T02:28:30.377Z,99067.13
2023-01-18T02:31:12.163Z,99073.38
2023-01-18T02:34:16.446Z,99070.28
2023-01-18T02:37:07.398Z,99085.53
2023-01-18T02:39:44.096Z,99078.44
2023-01-18T02:42:37.449Z,99087.97
2023-01-18T02:45:32.127Z,99092.22
2023-01-18T02:48:00.708Z,99085.88
2023-01-18T02:50:27.704Z,99093.81
2023-01-18T02:52:54.813Z,99085.78
2023-01-18T02:55:43.913Z,99084.94
2023-01-18T02:58:45.823Z,99082.47
2023-01-18T03:01:22.378Z,99084.28
2023-01-18T03:03:50.907Z,99092.13
2023-01-18T03:06:20.149Z,99099.97
2023-01-18T03:08:51.365Z,99100.72
2023-01-18T03:11:33.465Z,99097.97
2023-01-18T03:14:21.193Z,99099.66
2023-01-18T03:17:03.280Z,99092.69
2023-01-18T03:19:57.755Z,99097.44
2023-01-18T03:22:46.619Z,99101.41
2023-01-18T03:25:18.137Z,99097.53
2023-01-18T03:28:06.413Z,99099.53
2023-01-18T03:30:53.268Z,99101.63
2023-01-18T03:33:42.743Z,99109.31
2023-01-18T03:36:24.354Z,99110.75
2023-01-18T03:39:00.632Z,99109.81
2023-01-18T03:41:31.234Z,99115.00
2023-01-18T03:44:03.779Z,99121.06
2023-01-18T03:46:32.694Z,99122.75
2023-01-18T03:48:59.974Z,99120.94
2023-01-18T03:51:38.938Z,99120.00
2023-01-18T03:54:20.046Z,99132.28
2023-01-18T03:56:53.861Z,99131.34
2023-01-18T03:59:21.666Z,99128.69
2023-01-18T04:01:49.065Z,99134.75
2023-01-18T04:04:15.701Z,99131.34
2023-01-18T04:06:42.440Z,99133.16
2023-01-18T04:09:09.036Z,99140.34
2023-01-18T04:11:35.758Z,99140.44
2023-01-18T04:14:02.310Z,99148.66
2023-01-18T04:16:28.846Z,99146.31
2023-01-18T04:18:55.398Z,99151.59
2023-01-18T04:21:21.986Z,99140.25
2023-01-18T04:23:48.555Z,99149.91
2023-01-18T04:26:16.698Z,99150.00
2023-01-18T04:28:43.403Z,99155.28
2023-01-18T04:31:09.978Z,99152.75
2023-01-18T04:33:36.542Z,99146.69
2023-01-18T04:36:03.223Z,99157.38
2023-01-18T04:38:29.747Z,99159.25
2023-01-18T04:40:56.237Z,99159.16
2023-01-18T04:43:22.753Z,99159.91
2023-01-18T04:45:54.435Z,99158.88
2023-01-18T04:48:21.543Z,99154.44
2023-01-18T04:50:48.501Z,99161.34
2023-01-18T04:53:16.599Z,99164.84
2023-01-18T04:55:43.728Z,99162.19
2023-01-18T04:58:10.473Z,99172.69
2023-01-18T05:00:40.179Z,99171.72
2023-01-18T05:03:11.111Z,99170.88
2023-01-18T05:05:37.718Z,99179.56
2023-01-18T05:08:04.335Z,99182.22
2023-01-18T05:10:31.013Z,99184.88
2023-01-18T05:12:58.056Z,99195.66
2023-01-18T05:15:24.753Z,99197.53
2023-01-18T05:17:51.336Z,99196.03
2023-01-18T05:20:18.046Z,99197.16
2023-01-18T05:22:44.602Z,99200.94
2023-01-18T05:25:11.114Z,99206.44
2023-01-18T05:27:37.761Z,99201.22
2023-01-18T05:30:06.694Z,99202.84
2023-01-18T05:32:33.470Z,99207.09
2023-01-18T05:35:00.036Z,99204.53
2023-01-18T05:37:26.580Z,99214.56
2023-01-18T05:39:53.129Z,99221.91
2023-01-18T05:42:19.684Z,99222.28
2023-01-18T05:44:46.210Z,99227.94
2023-01-18T05:47:12.789Z,99229.06
2023-01-18T05:49:41.739Z,99234.28
2023-01-18T05:52:08.641Z,99242.13
2023-01-18T05:54:35.197Z,99231.44
2023-01-18T05:57:01.791Z,99226.72
2023-01-18T05:59:28.251Z,99229.09
2023-01-18T06:01:54.831Z,99235.91
2023-01-18T06:04:22.151Z,99235.63
2023-01-18T06:06:48.722Z,99241.50
2023-01-18T06:09:15.282Z,99243.97
2023-01-18T06:11:41.764Z,99245.47
2023-01-18T06:14:08.830Z,99253.22
2023-01-18T06:16:35.515Z,99261.94
2023-01-18T06:19:02.134Z,99267.88
2023-01-18T06:21:28.690Z,99265.13
2023-01-18T06:23:55.224Z,99266.00
2023-01-18T06:26:23.757Z,99273.00
2023-01-18T06:28:50.331Z,99277.44
2023-01-18T06:31:16.972Z,99272.31
2023-01-18T06:33:43.485Z,99273.38
2023-01-18T06:36:10.295Z,99269.09
2023-01-18T06:38:36.769Z,99275.63
2023-01-18T06:41:03.365Z,99276.84
2023-01-18T06:43:30.075Z,99287.81
2023-01-18T06:45:57.413Z,99285.53
2023-01-18T06:48:25.214Z,99284.94
2023-01-18T06:50:55.084Z,99288.44
2023-01-18T06:53:22.310Z,99290.06
2023-01-18T06:55:59.919Z,99295.16
2023-01-18T06:58:27.536Z,99296.88
2023-01-18T07:00:59.418Z,99298.47
2023-01-18T07:03:27.702Z,99312.66
2023-01-18T07:05:55.029Z,99303.09
2023-01-18T07:08:21.619Z,99307.72
2023-01-18T07:10:48.686Z,99315.75
2023-01-18T07:13:15.457Z,99314.13
2023-01-18T07:15:42.185Z,99326.59
2023-01-18T07:18:08.689Z,99327.63
2023-01-18T07:20:35.251Z,99331.22
2023-01-18T07:23:02.677Z,99335.56
2023-01-18T07:25:32.092Z,99336.34
2023-01-18T07:27:58.772Z,99345.88
2023-01-18T07:30:25.858Z,99335.13
2023-01-18T07:32:53.292Z,99342.53
2023-01-18T07:35:23.880Z,99349.91
2023-01-18T07:37:53.464Z,99342.28
2023-01-18T07:40:21.329Z,99343.34
2023-01-18T07:42:48.983Z,99357.63
2023-01-18T07:45:15.666Z,99357.78
2023-01-18T07:47:43.101Z,99358.75
2023-01-18T07:50:10.481Z,99367.72
2023-01-18T07:52:37.043Z,99354.66
2023-01-18T07:55:06.478Z,99365.53
2023-01-18T07:57:33.235Z,99367.63
2023-01-18T07:59:59.783Z,99369.69
2023-01-18T08:02:26.260Z,99371.75
2023-01-18T08:04:52.740Z,99374.06
2023-01-18T08:07:19.902Z,99370.25
2023-01-18T08:09:46.576Z,99369.13
2023-01-18T08:12:17.920Z,99381.22
2023-01-18T08:14:46.099Z,99386.13
2023-01-18T08:17:12.736Z,99384.03
2023-01-18T08:19:39.400Z,99391.59
2023-01-18T08:22:07.758Z,99392.91
2023-01-18T08:24:34.301Z,99389.88
2023-01-18T08:27:00.878Z,99393.16
2023-01-18T08:29:27.436Z,99402.84
2023-01-18T08:31:54.510Z,99399.44
2023-01-18T08:34:21.835Z,99402.94
2023-01-18T08:36:48.485Z,99405.78
2023-01-18T08:39:15.044Z,99405.97
2023-01-18T08:41:41.975Z,99410.53
2023-01-18T08:44:08.465Z,99407.78
2023-01-18T08:46:36.394Z,99412.16
2023-01-18T08:49:05.733Z,99415.44
2023-01-18T08:51:32.649Z,99421.41
2023-01-18T08:53:59.814Z,99419.41
2023-01-18T08:56:26.630Z,99419.88
2023-01-18T08:58:53.559Z,99426.56
2023-01-18T09:01:23.000Z,99430.56
2023-01-18T09:03:50.520Z,99437.06
2023-01-18T09:06:21.179Z,99440.06
2023-01-18T09:08:48.589Z,99443.91
2023-01-18T09:11:15.920Z,99434.59
2023-01-18T09:13:59.353Z,99433.13
2023-01-18T09:16:26.890Z,99437.72
2023-01-18T09:18:55.438Z,99443.03
2023-01-18T09:21:22.369Z,99442.13
2023-01-18T09:23:49.449Z,99454.38
2023-01-18T09:26:17.235Z,99461.41
2023-01-18T09:28:47.223Z,99460.22
2023-01-18T09:31:13.839Z,99468.72
2023-01-18T09:33:48.317Z,99465.53
2023-01-18T09:36:21.469Z,99480.16
2023-01-18T09:38:48.085Z,99476.38
2023-01-18T09:41:36.507Z,99475.38
2023-01-18T09:44:16.662Z,99486.13
2023-01-18T09:46:45.042Z,99489.97
2023-01-18T09:49:20.041Z,99489.41
2023-01-18T09:51:56.885Z,99488.94
2023-01-18T09:54:40.598Z,99498.28
2023-01-18T09:57:44.735Z,99497.84
2023-01-18T10:00:25.054Z,99495.69
2023-01-18T10:02:57.311Z,99497.38
2023-01-18T10:05:28.389Z,99499.19
2023-01-18T10:08:04.378Z,99501.50
2023-01-18T10:10:40.556Z,99506.50
2023-01-18T10:13:23.494Z,99501.66
2023-01-18T10:15:50.235Z,99514.53
2023-01-18T10:18:18.665Z,99511.41
2023-01-18T10:20:51.790Z,99515.31
2023-01-18T10:23:34.900Z,99518.50
2023-01-18T10:26:27.046Z,99519.84
2023-01-18T10:29:15.728Z,99522.91
2023-01-18T10:32:04.169Z,99513.34
2023-01-18T10:34:33.400Z,99516.16
2023-01-18T10:37:40.144Z,99505.59
2023-01-18T10:40:10.196Z,99505.72
2023-01-18T10:42:43.456Z,99514.34
2023-01-18T10:45:21.302Z,99516.22
2023-01-18T10:47:53.169Z,99515.94
2023-01-18T10:50:36.713Z,99517.53
2023-01-18T10:53:21.489Z,99519.91
2023-01-18T10:56:00.034Z,99520.75
2023-01-18T10:58:43.386Z,99511.00
2023-01-18T11:01:20.226Z,99513.06
2023-01-18T11:03:51.139Z,99510.03
2023-01-18T11:06:20.549Z,99519.22
2023-01-18T11:08:48.962Z,99519.47
2023-01-18T11:11:47.413Z,99519.56
2023-01-18T11:14:29.552Z,99521.22
2023-01-18T11:17:11.581Z,99518.72
2023-01-18T11:19:39.481Z,99519.19
2023-01-18T11:22:15.766Z,99522.91
2023-01-18T11:24:43.030Z,99521.28
2023-01-18T11:27:18.942Z,99531.25
2023-01-18T11:29:46.492Z,99525.09
2023-01-18T11:32:26.738Z,99523.47
2023-01-18T11:34:55.897Z,99525.34
2023-01-18T11:37:34.395Z,99516.50
2023-01-18T11:40:36.644Z,99516.22
2023-01-18T11:43:05.734Z,99508.63
2023-01-18T11:45:40.891Z,99497.06
2023-01-18T11:48:30.108Z,99499.63
2023-01-18T11:51:08.555Z,99509.22
2023-01-18T11:54:03.283Z,99509.22
2023-01-18T11:56:40.762Z,99514.16
2023-01-18T11:59:18.767Z,99509.53
2023-01-18T12:02:03.285Z,99509.13
2023-01-18T12:04:33.082Z,99508.59
2023-01-18T12:07:24.602Z,99509.31
2023-01-18T12:09:57.890Z,99521.75
2023-01-18T12:12:35.583Z,99525.84
2023-01-18T12:15:22.524Z,99527.28
2023-01-18T12:18:13.276Z,99535.91
2023-01-18T12:21:01.564Z,99533.66
2023-01-18T12:23:50.081Z,99535.06
2023-01-18T12:26:35.890Z,99539.03
2023-01-18T12:29:21.862Z,99532.16
2023-01-18T12:32:13.766Z,99536.69
2023-01-18T12:35:19.052Z,99541.34
2023-01-18T12:38:14.238Z,99539.28
2023-01-18T12:41:16.380Z,99542.66
2023-01-18T12:44:13.944Z,99543.53
2023-01-18T12:46:49.271Z,99549.31
2023-01-18T12:49:19.187Z,99545.78
2023-01-18T12:51:50.378Z,99545.66
2023-01-18T12:54:34.527Z,99548.31
2023-01-18T12:57:02.035Z,99553.41
2023-01-18T12:59:34.736Z,99551.44
2023-01-18T13:02:21.344Z,99555.69
2023-01-18T13:05:04.337Z,99548.09
2023-01-18T13:07:35.733Z,99556.84
2023-01-18T13:10:02.788Z,99554.59
2023-01-18T13:12:29.633Z,99556.16
2023-01-18T13:15:21.692Z,99553.75
2023-01-18T13:17:56.092Z,99547.25
2023-01-18T13:20:36.602Z,99546.25
2023-01-18T13:23:18.544Z,99547.38
2023-01-18T13:26:01.595Z,99550.06
2023-01-18T13:28:28.653Z,99546.53
2023-01-18T13:31:03.098Z,99541.47
2023-01-18T13:33:32.608Z,99549.94
2023-01-18T13:36:07.899Z,99554.97
2023-01-18T13:38:41.557Z,99556.81
2023-01-18T13:41:13.250Z,99557.22
2023-01-18T13:43:41.218Z,99552.28
2023-01-18T13:46:07.760Z,99563.28
2023-01-18T13:48:57.519Z,99559.44
2023-01-18T13:51:33.266Z,99569.72
2023-01-18T13:53:59.853Z,99577.19
2023-01-18T13:56:28.118Z,99573.50
2023-01-18T13:59:00.365Z,99580.13
2023-01-18T14:01:32.705Z,99583.34
2023-01-18T14:04:19.047Z,99587.16
2023-01-18T14:06:46.701Z,99583.75
2023-01-18T14:09:16.089Z,99581.19
2023-01-18T14:11:52.286Z,99586.84
2023-01-18T14:14:19.600Z,99577.22
2023-01-18T14:16:59.837Z,99583.25
2023-01-18T14:19:28.455Z,99581.22
2023-01-18T14:22:07.284Z,99588.22
2023-01-18T14:24:52.695Z,99578.63
2023-01-18T14:27:25.514Z,99576.09
2023-01-18T14:30:12.708Z,99590.00
2023-01-18T14:32:46.033Z,99586.88
2023-01-18T14:35:20.535Z,99592.63
2023-01-18T14:37:47.094Z,99598.38
2023-01-18T14:40:18.715Z,99597.22
2023-01-18T14:42:59.190Z,99593.94
2023-01-18T14:45:30.978Z,99592.50
2023-01-18T14:48:12.819Z,99601.66
2023-01-18T14:50:45.758Z,99603.63
2023-01-18T14:53:25.340Z,99607.06
2023-01-18T14:56:14.685Z,99607.72
2023-01-18T14:58:44.730Z,99619.41
2023-01-18T15:01:28.343Z,99618.66
2023-01-18T15:03:57.115Z,99624.13
2023-01-18T15:06:35.536Z,99621.97
2023-01-18T15:09:05.693Z,99630.38
2023-01-18T15:11:34.372Z,99630.03
2023-01-18T15:14:01.158Z,99633.94
2023-01-18T15:16:31.067Z,99634.06
2023-01-18T15:19:02.001Z,99636.03
2023-01-18T15:21:31.984Z,99634.44
2023-01-18T15:24:05.037Z,99637.63
2023-01-18T15:26:52.748Z,99646.03
2023-01-18T15:29:25.030Z,99640.22
2023-01-18T15:31:56.256Z,99639.84
2023-01-18T15:34:32.829Z,99652.84
2023-01-18T15:37:01.299Z,99652.50
2023-01-18T15:39:27.983Z,99656.50
2023-01-18T15:41:57.045Z,99647.13
2023-01-18T15:44:32.355Z,99658.06
2023-01-18T15:46:59.063Z,99659.28
2023-01-18T15:49:25.667Z,99654.53
2023-01-18T15:51:52.671Z,99659.66
2023-01-18T15:54:26.884Z,99671.78
2023-01-18T15:56:57.889Z,99666.31
2023-01-18T15:59:27.040Z,99672.03
2023-01-18T16:02:12.987Z,99667.78
2023-01-18T16:04:40.699Z,99680.41
2023-01-18T16:07:37.525Z,99675.41
2023-01-18T16:10:30.190Z,99672.97
2023-01-18T16:13:22.801Z,99674.91
2023-01-18T16:16:15.525Z,99676.00
2023-01-18T16:19:11.375Z,99675.41
2023-01-18T16:21:44.619Z,99679.88
2023-01-18T16:24:16.595Z,99681.94
2023-01-18T16:26:44.077Z,99682.06
2023-01-18T16:29:10.816Z,99684.09
2023-01-18T16:31:41.418Z,99684.19
2023-01-18T16:34:18.701Z,99687.09
2023-01-18T16:36:45.298Z,99690.84
2023-01-18T16:39:11.893Z,99696.31
2023-01-18T16:41:41.820Z,99694.63
2023-01-18T16:44:11.379Z,99698.25
2023-01-18T16:46:38.039Z,99694.84
2023-01-18T16:49:09.649Z,99694.84
2023-01-18T16:51:36.249Z,99692.28
2023-01-18T16:54:02.815Z,99692.41
2023-01-18T16:56:29.357Z,99699.81
2023-01-18T16:58:55.880Z,99696.50
2023-01-18T17:01:22.527Z,99701.13
2023-01-18T17:03:50.836Z,99703.91
2023-01-18T17:06:20.809Z,99711.28
2023-01-18T17:08:49.102Z,99706.19
2023-01-18T17:11:15.682Z,99716.13
2023-01-18T17:13:42.189Z,99725.09
2023-01-18T17:16:16.963Z,99719.88
2023-01-18T17:18:43.876Z,99721.91
2023-01-18T17:21:11.581Z,99726.50
2023-01-18T17:23:39.846Z,99728.44
2023-01-18T17:26:07.825Z,99722.38
2023-01-18T17:28:34.434Z,99723.44
2023-01-18T17:31:01.342Z,99720.03
2023-01-18T17:33:28.409Z,99730.09
2023-01-18T17:35:55.458Z,99729.34
2023-01-18T17:38:24.365Z,99736.72
2023-01-18T17:40:51.916Z,99737.81
2023-01-18T17:43:28.422Z,99738.88
2023-01-18T17:46:02.549Z,99741.66
2023-01-18T17:48:29.204Z,99735.59
2023-01-18T17:50:55.972Z,99737.50
2023-01-18T17:53:22.686Z,99743.88
2023-01-18T17:55:52.583Z,99749.13
2023-01-18T17:58:19.077Z,99746.38
2023-01-18T18:00:45.633Z,99752.56
2023-01-18T18:03:13.051Z,99757.97
2023-01-18T18:05:39.724Z,99760.56
2023-01-18T18:08:07.582Z,99759.59
2023-01-18T18:10:34.121Z,99774.75
2023-01-18T18:13:01.246Z,99770.38
2023-01-18T18:15:28.334Z,99777.31
2023-01-18T18:17:54.846Z,99792.25
2023-01-18T18:20:22.758Z,99784.13
2023-01-18T18:22:49.483Z,99791.16
2023-01-18T18:25:16.169Z,99800.78
2023-01-18T18:27:46.856Z,99798.84
2023-01-18T18:30:14.899Z,99800.44
2023-01-18T18:32:41.752Z,99811.00
2023-01-18T18:35:23.840Z,99802.03
2023-01-18T18:37:53.482Z,99805.56
2023-01-18T18:40:20.526Z,99802.03
2023-01-18T18:43:00.726Z,99812.72
2023-01-18T18:45:29.461Z,99808.22
2023-01-18T18:47:55.950Z,99810.91
2023-01-18T18:50:22.483Z,99809.94
2023-01-18T18:52:49.032Z,99806.28
2023-01-18T18:55:15.701Z,99810.56
2023-01-18T18:57:42.297Z,99814.94
2023-01-18T19:00:09.511Z,99818.47
2023-01-18T19:02:36.151Z,99816.75
2023-01-18T19:05:03.549Z,99814.09
2023-01-18T19:07:30.115Z,99816.97
2023-01-18T19:09:56.686Z,99817.19
2023-01-18T19:12:23.248Z,99818.38
2023-01-18T19:14:49.828Z,99820.41
2023-01-18T19:17:28.861Z,99830.34
2023-01-18T19:19:56.232Z,99824.28
2023-01-18T19:22:22.755Z,99835.03
2023-01-18T19:24:49.391Z,99832.59
2023-01-18T19:27:16.578Z,99829.25
2023-01-18T19:29:43.190Z,99832.16
2023-01-18T19:32:10.022Z,99838.44
2023-01-18T19:34:39.602Z,99828.84
2023-01-18T19:37:06.783Z,99831.63
2023-01-18T19:39:34.812Z,99846.88
2023-01-18T19:42:02.375Z,99847.94
2023-01-18T19:44:29.082Z,99847.44
2023-01-18T19:46:56.955Z,99839.63
2023-01-18T19:49:25.578Z,99851.16
2023-01-18T19:51:52.891Z,99847.53
2023-01-18T19:54:19.426Z,99857.34
2023-01-18T19:56:46.452Z,99864.59
2023-01-18T19:59:14.476Z,99869.09
2023-01-18T20:01:41.146Z,99869.81
2023-01-18T20:04:08.644Z,99868.88
2023-01-18T20:06:38.241Z,99873.34
2023-01-18T20:09:15.780Z,99870.47
2023-01-18T20:11:45.396Z,99869.28
2023-01-18T20:14:12.843Z,99868.97
2023-01-18T20:16:39.735Z,99870.47
2023-01-18T20:19:06.432Z,99877.28
2023-01-18T20:21:32.946Z,99885.00
2023-01-18T20:23:59.527Z,99874.09
2023-01-18T20:26:36.075Z,99875.59
2023-01-18T20:29:07.327Z,99876.22
2023-01-18T20:31:38.131Z,99881.25
2023-01-18T20:34:05.726Z,99882.00
2023-01-18T20:36:34.880Z,99880.91
2023-01-18T20:39:02.279Z,99877.19
2023-01-18T20:41:28.929Z,99880.69
2023-01-18T20:43:55.432Z,99881.66
2023-01-18T20:46:22.286Z,99891.59
2023-01-18T20:48:49.620Z,99892.66
2023-01-18T20:51:17.896Z,99903.56
2023-01-18T20:53:44.659Z,99896.72
2023-01-18T20:56:27.742Z,99900.38
2023-01-18T20:58:55.244Z,99908.47
2023-01-18T21:01:21.947Z,99910.41
2023-01-18T21:03:54.487Z,99905.16
2023-01-18T21:06:21.293Z,99907.09
2023-01-18T21:08:47.823Z,99908.06
2023-01-18T21:11:17.548Z,99909.00
2023-01-18T21:13:44.491Z,99916.34
2023-01-18T21:16:11.181Z,99912.28
2023-01-18T21:18:39.430Z,99916.03
2023-01-18T21:21:07.366Z,99917.84
2023-01-18T21:23:39.206Z,99918.69
2023-01-18T21:26:12.029Z,99925.31
2023-01-18T21:28:39.215Z,99912.28
2023-01-18T21:31:06.642Z,99929.47
2023-01-18T21:33:33.777Z,99925.09
2023-01-18T21:36:15.311Z,99928.81
2023-01-18T21:38:41.969Z,99932.34
2023-01-18T21:41:27.368Z,99930.63
2023-01-18T21:44:12.859Z,99935.13
2023-01-18T21:46:48.067Z,99939.59
2023-01-18T21:49:47.162Z,99943.22
2023-01-18T21:52:38.151Z,99944.28
2023-01-18T21:55:04.890Z,99947.91
2023-01-18T21:57:31.388Z,99952.38
2023-01-18T21:59:57.961Z,99952.50
2023-01-18T22:02:24.769Z,99948.97
2023-01-18T22:04:58.978Z,99947.25
2023-01-18T22:07:30.176Z,99945.56
2023-01-18T22:10:05.197Z,99952.81
2023-01-18T22:12:34.936Z,99939.56
2023-01-18T22:15:02.258Z,99948.44
2023-01-18T22:18:31.902Z,99947.78
2023-01-18T22:20:58.630Z,99950.44
2023-01-18T22:23:25.130Z,99952.38
2023-01-18T22:25:55.281Z,99953.13
2023-01-18T22:28:31.913Z,99952.38
2023-01-18T22:30:58.877Z,99948.19
2023-01-18T22:33:25.413Z,99934.22
2023-01-18T22:35:57.666Z,99932.41
2023-01-18T22:38:24.417Z,99934.22
2023-01-18T22:41:00.302Z,99952.88
2023-01-18T22:43:26.904Z,99965.47
2023-01-18T22:45:56.876Z,99963.00
2023-01-18T22:48:23.696Z,99971.94
2023-01-18T22:50:58.674Z,99969.50
2023-01-18T22:53:27.257Z,99969.69
2023-01-18T22:55:55.231Z,99972.47
2023-01-18T22:58:21.791Z,99975.22
2023-01-18T23:00:49.046Z,99982.38
2023-01-18T23:03:17.363Z,99977.03
2023-01-18T23:05:55.998Z,99986.84
2023-01-18T23:08:24.026Z,99994.72
2023-01-18T23:10:56.795Z,99989.50
2023-01-18T23:13:23.619Z,99994.84
2023-01-18T23:16:08.902Z,99994.94
2023-01-18T23:18:35.455Z,99988.84
2023-01-18T23:21:02.037Z,99995.97
2023-01-18T23:23:28.558Z,99987.91
2023-01-18T23:25:56.307Z,99985.13
2023-01-18T23:28:41.451Z,99982.25
2023-01-18T23:31:07.920Z,99985.69
2023-01-18T23:33:34.566Z,99981.97
2023-01-18T23:36:01.047Z,99984.63
2023-01-18T23:38:27.523Z,99985.59
2023-01-18T23:41:14.090Z,99992.53
2023-01-18T23:43:59.722Z,99983.47
2023-01-18T23:46:44.687Z,99986.78
2023-01-18T23:49:29.806Z,99989.34
2023-01-18T23:52:15.034Z,99992.66
2023-01-18T23:54:41.641Z,99992.56
2023-01-18T23:57:08.161Z,99994.06
2023-01-18T23:59:34.781Z,99997.38
